Time;durP1;ratioP1;P1;durP2;ratioP2;P2;SDS_P1;SDS_P2;PMS_P1;PMS_P2;Temp;Humidity;BMP_temperature;BMP_pressure;BME280_temperature;BME280_humidity;BME280_pressure;Samples;Min_cycle;Max_cycle;Signal;HPM_P1;HPM_P2
2021/05/31 00:00:17;;;;;;;7.15;2.83;;;;;;;10.64;84.97;99553.20;1721386;83;21618;-62
2021/05/31 00:02:44;;;;;;;7.80;2.40;;;;;;;10.67;84.96;99539.57;1738806;81;21140;-63
2021/05/31 00:05:12;;;;;;;5.00;2.30;;;;;;;10.67;85.01;99539.57;1730753;81;21043;-61
2021/05/31 00:07:39;;;;;;;;;;;;;;;10.67;85.11;99532.22;1699265;84;21101;-62
2021/05/31 00:10:08;;;;;;;6.42;2.35;;;;;;;10.68;84.90;99540.67;1712777;81;20537;-62
2021/05/31 00:12:35;;;;;;;7.78;2.12;;;;;;;10.63;84.96;99542.03;1720452;81;21626;-62
2021/05/31 00:15:02;;;;;;;5.25;2.50;;;;;;;10.64;84.87;99551.84;1723223;81;21012;-62
2021/05/31 00:17:28;;;;;;;8.98;2.17;;;;;;;10.65;84.64;99561.64;1742902;81;21675;-63
2021/05/31 00:19:55;;;;;;;5.37;1.98;;;;;;;10.68;84.60;99564.34;1740849;81;21057;-63
2021/05/31 00:22:21;;;;;;;7.40;2.17;;;;;;;10.70;84.47;99567.05;1738245;82;21679;-63
2021/05/31 00:24:49;;;;;;;5.45;1.90;;;;;;;10.75;84.25;99561.61;1710650;82;21043;-62
2021/05/31 00:27:16;;;;;;;5.15;2.10;;;;;;;10.75;84.16;99570.32;1711829;81;21108;-62
2021/05/31 00:29:44;;;;;;;3.77;2.08;;;;;;;10.76;83.98;99567.33;1708285;84;21057;-63
2021/05/31 00:32:10;;;;;;;3.98;1.72;;;;;;;10.78;83.85;99567.86;1712234;82;22219;-62
2021/05/31 00:34:38;;;;;;;5.50;1.95;;;;;;;10.75;83.68;99568.95;1713986;81;21033;-62
2021/05/31 00:37:05;;;;;;;4.95;1.80;;;;;;;10.70;83.83;99575.80;1738521;81;21068;-62
2021/05/31 00:39:33;;;;;;;4.10;1.70;;;;;;;10.71;83.86;99568.70;1754279;82;21025;-62
2021/05/31 00:42:00;;;;;;;6.25;1.90;;;;;;;10.66;83.97;99566.55;1742028;82;21061;-62
2021/05/31 00:44:26;;;;;;;;;;;;;;;10.63;84.04;99562.45;1730475;82;21042;-62
2021/05/31 00:46:52;;;;;;;7.33;2.05;;;;;;;10.59;84.14;99566.02;1756296;80;20155;-61
2021/05/31 00:49:21;;;;;;;;;;;;;;;10.54;84.44;99567.37;1770836;80;21018;-61
2021/05/31 00:51:47;;;;;;;6.95;1.80;;;;;;;10.58;84.49;99568.46;1723205;82;20155;-62
2021/05/31 00:54:14;;;;;;;;;;;;;;;10.50;84.76;99567.11;1731828;82;21058;-62
2021/05/31 00:56:41;;;;;;;3.87;2.10;;;;;;;10.51;84.63;99569.30;1751703;82;20578;-61
2021/05/31 00:59:09;;;;;;;3.62;2.00;;;;;;;10.44;84.66;99560.88;1724056;82;21143;-62
2021/05/31 01:01:35;;;;;;;4.72;1.67;;;;;;;10.43;84.64;99571.48;1793701;79;21036;-61
2021/05/31 01:04:02;;;;;;;4.03;1.77;;;;;;;10.43;84.67;99572.84;1797280;79;21524;-62
2021/05/31 01:06:32;;;;;;;5.50;1.80;;;;;;;10.44;84.62;99576.38;1798184;79;21030;-61
2021/05/31 01:09:12;;;;;;;6.47;1.87;;;;;;;10.43;84.55;99578.28;1772982;79;21691;-61
2021/05/31 01:12:12;;;;;;;8.43;1.80;;;;;;;10.42;84.50;99575.28;1790638;79;21026;-62
2021/05/31 01:14:53;;;;;;;5.72;2.00;;;;;;;10.42;84.55;99581.27;1785078;79;21036;-61
2021/05/31 01:17:30;;;;;;;4.90;1.80;;;;;;;10.36;84.66;99583.19;1780370;79;21057;-61
2021/05/31 01:20:41;;;;;;;5.85;1.95;;;;;;;10.37;84.60;99591.63;1784200;79;21040;-63
2021/05/31 01:23:10;;;;;;;3.83;1.72;;;;;;;10.36;84.59;99586.45;1793023;79;21059;-62
2021/05/31 01:26:14;;;;;;;4.80;1.85;;;;;;;10.29;84.75;99592.18;1782452;79;21093;-62
2021/05/31 01:29:06;;;;;;;5.40;1.75;;;;;;;10.29;84.79;99585.38;1804707;79;21049;-63
2021/05/31 01:31:49;;;;;;;5.42;2.00;;;;;;;10.31;84.87;99588.63;1797050;78;21036;-63
2021/05/31 01:34:20;;;;;;;4.40;1.70;;;;;;;10.33;84.81;99591.09;1786878;78;21003;-62
2021/05/31 01:36:52;;;;;;;5.17;1.90;;;;;;;10.37;84.67;99590.81;1773612;79;21067;-62
2021/05/31 01:39:24;;;;;;;4.45;1.77;;;;;;;10.39;84.13;99588.63;1764429;79;21028;-62
2021/05/31 01:41:52;;;;;;;4.03;1.87;;;;;;;10.38;84.21;99597.33;1762251;79;21035;-63
2021/05/31 01:44:19;;;;;;;9.20;1.80;;;;;;;10.42;84.10;99591.61;1786232;79;21379;-63
2021/05/31 01:46:47;;;;;;;7.58;1.60;;;;;;;10.42;83.82;99594.33;1781308;78;21081;-61
2021/05/31 01:49:13;;;;;;;;;;;;;;;10.41;83.73;99585.92;1760354;80;21563;-63
2021/05/31 01:51:39;;;;;;;4.72;1.75;;;;;;;10.41;83.77;99590.55;1758659;79;20153;-63
2021/05/31 01:54:07;;;;;;;8.03;1.90;;;;;;;10.36;83.90;99591.36;1724958;82;21052;-63
2021/05/31 01:56:35;;;;;;;5.92;2.10;;;;;;;10.39;83.72;99603.05;1752625;79;21038;-63
2021/05/31 01:59:02;;;;;;;;;;;;;;;10.39;83.54;99595.42;1765560;79;21179;-63
2021/05/31 02:01:30;;;;;;;5.10;1.90;;;;;;;10.38;83.48;99604.70;1770446;79;20160;-62
2021/05/31 02:03:57;;;;;;;5.85;1.70;;;;;;;10.39;83.46;99604.95;1771758;79;21064;-62
2021/05/31 02:06:23;;;;;;;7.62;2.17;;;;;;;10.42;83.44;99606.58;1770009;79;21457;-62
2021/05/31 02:08:49;;;;;;;10.18;2.40;;;;;;;10.49;83.15;99607.66;1771908;79;21630;-63
2021/05/31 02:11:22;;;;;;;;;;;;;;;10.50;83.06;99603.86;1778078;79;21035;-62
2021/05/31 02:13:50;;;;;;;4.47;1.67;;;;;;;10.49;83.09;99600.31;1770764;79;20179;-62
2021/05/31 02:16:27;;;;;;;5.72;1.90;;;;;;;10.49;83.13;99602.22;1776208;79;21064;-64
2021/05/31 02:18:53;;;;;;;7.65;1.92;;;;;;;10.48;83.15;99604.14;1771821;79;22348;-63
2021/05/31 02:21:21;;;;;;;5.70;1.98;;;;;;;10.50;83.22;99599.77;1769570;79;21000;-63
2021/05/31 02:23:48;;;;;;;4.47;2.12;;;;;;;10.54;83.20;99600.86;1756712;79;21063;-63
2021/05/31 02:26:17;;;;;;;7.42;2.25;;;;;;;10.56;83.25;99604.11;1790201;79;21585;-62
2021/05/31 02:28:45;;;;;;;6.03;2.08;;;;;;;10.54;83.25;99602.76;1782456;79;21681;-64
2021/05/31 02:31:12;;;;;;;5.97;2.00;;;;;;;10.54;83.24;99598.14;1755052;80;21116;-63
2021/05/31 02:33:38;;;;;;;3.42;2.02;;;;;;;10.59;83.00;99599.50;1779468;79;21076;-64
2021/05/31 02:36:05;;;;;;;4.40;1.80;;;;;;;10.61;83.01;99595.13;1776770;79;21043;-63
2021/05/31 02:38:32;;;;;;;3.30;1.90;;;;;;;10.62;83.05;99588.59;1773043;79;21059;-62
2021/05/31 02:40:59;;;;;;;4.05;1.85;;;;;;;10.59;83.10;99588.61;1690554;83;21049;-62
2021/05/31 02:43:25;;;;;;;;;;;;;;;10.58;83.24;99586.97;1746074;81;21055;-63
2021/05/31 02:45:51;;;;;;;3.92;1.92;;;;;;;10.59;83.42;99592.70;1733255;83;20542;-63
2021/05/31 02:48:18;;;;;;;7.80;2.30;;;;;;;10.56;83.53;99595.16;1729802;82;21134;-62
2021/05/31 02:50:44;;;;;;;3.58;2.20;;;;;;;10.61;83.51;99595.13;1729719;81;21020;-63
2021/05/31 02:53:10;;;;;;;7.00;1.98;;;;;;;10.57;83.60;99603.02;1726131;83;21080;-62
2021/05/31 02:55:39;;;;;;;5.08;1.90;;;;;;;10.56;83.63;99606.04;1741652;81;21012;-64
2021/05/31 02:58:05;;;;;;;6.83;2.22;;;;;;;10.55;83.68;99602.50;1705763;83;21655;-62
2021/05/31 03:00:31;;;;;;;6.90;2.60;;;;;;;10.60;83.82;99607.09;1807880;79;21304;-63
2021/05/31 03:02:59;;;;;;;10.08;2.42;;;;;;;10.66;83.78;99609.56;1788340;78;21062;-62
2021/05/31 03:05:28;;;;;;;;;;;;;;;10.68;83.77;99608.73;1783706;80;20986;-62
2021/05/31 03:07:56;;;;;;;3.52;1.82;;;;;;;10.72;83.83;99606.27;1781462;79;20155;-63
2021/05/31 03:10:24;;;;;;;8.20;2.87;;;;;;;10.75;83.68;99605.71;1801596;79;21133;-63
2021/05/31 03:12:50;;;;;;;;;;;;;;;10.78;83.62;99599.17;1796514;79;21074;-63
2021/05/31 03:15:17;;;;;;;4.70;2.30;;;;;;;10.77;83.85;99603.55;1799258;79;20180;-62
2021/05/31 03:17:49;;;;;;;5.95;2.42;;;;;;;10.76;84.05;99604.63;1814168;79;21089;-63
2021/05/31 03:20:17;;;;;;;4.83;2.47;;;;;;;10.79;84.11;99602.72;1785561;79;21063;-63
2021/05/31 03:22:43;;;;;;;4.90;2.45;;;;;;;10.85;84.04;99602.96;1760862;79;21042;-62
2021/05/31 03:25:11;;;;;;;8.80;2.83;;;;;;;10.88;83.99;99601.04;1785633;78;21540;-62
2021/05/31 03:27:40;;;;;;;6.90;2.20;;;;;;;10.89;83.89;99608.95;1779995;80;21050;-62
2021/05/31 03:30:09;;;;;;;4.53;2.60;;;;;;;10.94;83.69;99606.22;1805503;79;21032;-63
2021/05/31 03:32:36;;;;;;;6.47;2.40;;;;;;;11.01;83.62;99607.83;1781025;79;21089;-63
2021/05/31 03:35:04;;;;;;;7.03;2.60;;;;;;;11.07;83.24;99606.70;1768626;79;21453;-62
2021/05/31 03:37:31;;;;;;;6.80;2.17;;;;;;;11.13;83.25;99599.59;1773606;79;21119;-62
2021/05/31 03:39:57;;;;;;;;;;;;;;;11.19;83.30;99608.04;1781573;79;21541;-63
2021/05/31 03:42:23;;;;;;;4.15;2.20;;;;;;;11.20;83.41;99606.92;1800297;79;20153;-63
2021/05/31 03:44:50;;;;;;;;;;;;;;;11.22;83.31;99616.20;1815837;78;21013;-64
2021/05/31 03:47:17;;;;;;;6.70;2.95;;;;;;;11.27;83.16;99610.16;1813615;79;20141;-63
2021/05/31 03:49:44;;;;;;;4.33;2.98;;;;;;;11.27;83.39;99615.61;1797170;79;21479;-63
2021/05/31 03:52:11;;;;;;;9.00;2.87;;;;;;;11.27;83.05;99616.98;1784850;79;21081;-64
2021/05/31 03:54:38;;;;;;;6.15;2.40;;;;;;;11.31;83.10;99616.69;1785309;80;21077;-64
2021/05/31 03:57:05;;;;;;;7.45;2.40;;;;;;;11.44;82.99;99619.37;1809715;78;21079;-63
2021/05/31 03:59:31;;;;;;;7.42;2.72;;;;;;;11.59;82.57;99626.09;1780821;80;21018;-64
2021/05/31 04:01:57;;;;;;;;;;;;;;;11.64;81.80;99621.98;1782079;78;21646;-62
2021/05/31 04:04:24;;;;;;;5.62;2.42;;;;;;;11.68;81.87;99611.33;1790101;80;20138;-63
2021/05/31 04:12:04;;;;;;;7.00;3.33;;;;;;;11.68;81.07;99608.60;1746523;81;21048;-63
2021/05/31 04:14:30;;;;;;;10.30;3.80;;;;;;;11.61;81.48;99609.46;1753932;82;21547;-63
2021/05/31 04:16:57;;;;;;;6.12;2.85;;;;;;;11.63;81.82;99608.08;1725944;82;21069;-62
2021/05/31 04:19:25;;;;;;;7.72;2.87;;;;;;;11.72;81.69;99605.07;1737431;81;21498;-62
2021/05/31 04:21:53;;;;;;;6.30;3.15;;;;;;;11.75;81.26;99603.14;1740435;81;21055;-64
2021/05/31 04:24:20;;;;;;;9.15;3.30;;;;;;;11.81;80.96;99612.91;1737598;82;20998;-62
2021/05/31 04:26:47;;;;;;;5.72;3.35;;;;;;;11.75;80.80;99600.95;1745289;81;21068;-64
2021/05/31 04:29:15;;;;;;;8.33;2.77;;;;;;;11.87;80.66;99614.50;1708196;83;21076;-63
2021/05/31 04:31:42;;;;;;;7.50;3.00;;;;;;;11.97;80.79;99625.91;1719453;82;21620;-62
2021/05/31 04:34:10;;;;;;;5.97;3.20;;;;;;;12.05;80.37;99620.37;1718164;82;21085;-62
2021/05/31 04:36:36;;;;;;;7.35;3.60;;;;;;;12.12;79.70;99627.69;1712141;82;21004;-62
2021/05/31 04:39:05;;;;;;;6.83;3.30;;;;;;;12.07;78.51;99619.02;1736880;81;21647;-62
2021/05/31 04:41:33;;;;;;;6.15;2.47;;;;;;;12.14;78.78;99619.50;1712785;82;21029;-63
2021/05/31 04:43:59;;;;;;;6.58;3.05;;;;;;;12.24;78.37;99618.05;1731389;81;21812;-61
2021/05/31 04:46:27;;;;;;;7.17;2.95;;;;;;;12.33;78.33;99612.78;1727362;81;21060;-61
2021/05/31 04:48:54;;;;;;;6.65;2.58;;;;;;;12.31;77.26;99615.81;1728184;81;21139;-62
2021/05/31 04:51:21;;;;;;;6.62;2.67;;;;;;;12.35;75.91;99624.25;1715516;82;21048;-63
2021/05/31 04:53:49;;;;;;;5.33;2.40;;;;;;;12.34;75.56;99617.14;1723452;82;21088;-63
2021/05/31 04:56:16;;;;;;;6.78;2.30;;;;;;;12.32;75.66;99624.81;1722980;82;21013;-62
2021/05/31 04:58:43;;;;;;;8.00;2.22;;;;;;;12.39;75.57;99629.41;1730727;81;21212;-62
2021/05/31 05:01:10;;;;;;;4.15;2.08;;;;;;;12.38;75.45;99626.40;1743775;81;21523;-62
2021/05/31 05:03:37;;;;;;;7.90;1.90;;;;;;;12.46;76.60;99625.24;1756708;81;21079;-63
2021/05/31 05:06:04;;;;;;;6.53;2.10;;;;;;;12.61;75.66;99622.11;1732737;81;21052;-62
2021/05/31 05:08:30;;;;;;;8.10;2.72;;;;;;;12.67;73.96;99619.59;1727251;82;21090;-62
2021/05/31 05:10:57;;;;;;;7.37;2.15;;;;;;;12.68;73.86;99628.05;1743536;81;21043;-62
2021/05/31 05:13:23;;;;;;;3.70;1.62;;;;;;;12.77;73.99;99624.94;1721545;82;21127;-62
2021/05/31 05:15:51;;;;;;;8.08;2.00;;;;;;;13.01;74.47;99619.48;1743656;82;21027;-63
2021/05/31 05:18:17;;;;;;;;;;;;;;;13.31;72.36;99620.55;1721196;82;21589;-62
2021/05/31 05:20:44;;;;;;;4.55;1.65;;;;;;;13.46;71.05;99621.14;1739387;81;20140;-62
2021/05/31 05:23:10;;;;;;;5.25;2.17;;;;;;;13.37;70.77;99624.28;1751077;82;21080;-61
2021/05/31 05:25:38;;;;;;;6.03;2.00;;;;;;;13.37;70.54;99616.62;1731998;82;21036;-62
2021/05/31 05:28:04;;;;;;;7.97;1.85;;;;;;;13.46;69.68;99624.46;1767350;81;21626;-61
2021/05/31 05:30:34;;;;;;;4.75;1.95;;;;;;;13.59;70.40;99622.91;1724422;82;21032;-61
2021/05/31 05:33:01;;;;;;;6.20;1.77;;;;;;;13.71;69.90;99626.83;1711691;82;21086;-61
2021/05/31 05:35:35;;;;;;;;;;;;;;;13.76;68.33;99625.95;1720876;83;21005;-62
2021/05/31 05:46:05;;;;;;;8.40;1.70;;;;;;;13.74;67.61;99632.29;1721484;82;21648;-62
2021/05/31 05:48:29;;;;;;;3.00;1.75;;;;;;;13.71;68.18;99630.94;1726651;82;21080;-60
2021/05/31 05:51:05;;;;;;;4.55;2.02;;;;;;;13.64;68.58;99634.59;1724415;82;21035;-61
2021/05/31 05:53:33;;;;;;;3.08;1.70;;;;;;;13.78;67.79;99636.06;1746715;82;21070;-61
2021/05/31 05:55:59;;;;;;;5.12;1.92;;;;;;;13.93;67.67;99635.27;1727502;81;21032;-62
2021/05/31 05:58:29;;;;;;;;;;;;;;;14.03;67.87;99624.72;1736610;82;21078;-62
2021/05/31 06:00:59;;;;;;;5.17;1.90;;;;;;;14.19;67.14;99627.50;1700777;84;20500;-61
2021/05/31 06:03:25;;;;;;;5.20;1.80;;;;;;;14.28;66.92;99633.91;1694269;84;21102;-61
2021/05/31 06:05:53;;;;;;;;;;;;;;;14.32;65.92;99636.86;1701903;83;21022;-63
2021/05/31 06:08:20;;;;;;;7.65;1.72;;;;;;;14.02;66.27;99637.35;1700600;83;20531;-62
2021/05/31 06:10:46;;;;;;;9.23;2.25;;;;;;;13.61;67.95;99638.46;1704338;84;20998;-62
2021/05/31 06:13:13;;;;;;;;;;;;;;;13.49;68.69;99638.09;1720799;83;21611;-61
2021/05/31 06:15:40;;;;;;;6.83;1.60;;;;;;;13.48;67.90;99640.56;1721206;83;20155;-60
2021/05/31 06:18:07;;;;;;;3.27;1.75;;;;;;;13.26;68.03;99641.09;1710984;83;21630;-63
2021/05/31 06:20:34;;;;;;;;;;;;;;;13.11;67.73;99639.92;1726136;83;21058;-62
2021/05/31 06:23:05;;;;;;;8.38;1.80;;;;;;;13.09;69.07;99644.82;1674665;84;20182;-63
2021/05/31 06:25:32;;;;;;;5.60;1.67;;;;;;;13.01;68.84;99644.90;1703286;84;21143;-62
2021/05/31 06:28:00;;;;;;;6.28;2.62;;;;;;;13.03;69.37;99639.98;1718526;83;21179;-62
2021/05/31 06:30:26;;;;;;;5.72;2.27;;;;;;;13.04;68.93;99642.95;1721760;83;21035;-61
2021/05/31 06:32:53;;;;;;;3.90;1.60;;;;;;;13.06;68.53;99638.57;1718740;83;21085;-62
2021/05/31 06:35:21;;;;;;;5.55;1.60;;;;;;;13.17;68.59;99634.66;1715610;83;21549;-62
2021/05/31 06:37:47;;;;;;;4.37;1.60;;;;;;;13.42;69.17;99638.45;1699944;84;21145;-62
2021/05/31 06:40:14;;;;;;;6.95;2.00;;;;;;;13.59;67.87;99632.48;1708121;81;21032;-62
2021/05/31 06:42:42;;;;;;;5.00;1.60;;;;;;;13.73;67.51;99634.76;1704477;83;21139;-60
2021/05/31 06:45:12;;;;;;;6.70;1.50;;;;;;;13.74;65.10;99635.02;1731176;83;21630;-62
2021/05/31 06:47:38;;;;;;;7.35;2.52;;;;;;;13.79;65.98;99634.94;1714719;83;21095;-63
2021/05/31 06:50:06;;;;;;;;;;;;;;;13.77;67.02;99634.43;1712899;81;21504;-63
2021/05/31 06:52:33;;;;;;;6.25;1.62;;;;;;;13.60;67.11;99636.31;1725811;83;20174;-63
2021/05/31 06:54:59;;;;;;;7.75;2.27;;;;;;;13.43;67.76;99637.33;1732880;83;21087;-62
2021/05/31 06:57:26;;;;;;;;;;;;;;;13.24;68.22;99639.22;1720973;83;21875;-63
2021/05/31 06:59:52;;;;;;;4.47;1.55;;;;;;;13.22;67.67;99636.77;1728876;83;20161;-64
2021/05/31 07:02:18;;;;;;;;;;;;;;;13.14;69.15;99645.63;1713379;81;21071;-63
2021/05/31 07:04:46;;;;;;;4.53;1.55;;;;;;;13.19;68.64;99637.90;1710175;83;20515;-61
2021/05/31 07:07:12;;;;;;;;;;;;;;;13.30;68.69;99640.78;1720767;83;21047;-63
2021/05/31 07:09:40;;;;;;;5.12;1.70;;;;;;;13.41;67.58;99640.38;1719028;83;20556;-61
2021/05/31 07:12:07;;;;;;;5.08;1.70;;;;;;;13.42;66.96;99633.80;1745916;81;21092;-62
2021/05/31 07:14:36;;;;;;;3.92;1.55;;;;;;;13.49;65.64;99635.36;1728879;83;21032;-61
2021/05/31 07:17:03;;;;;;;5.10;1.62;;;;;;;13.59;66.59;99636.04;1713403;83;21040;-60
2021/05/31 07:19:29;;;;;;;2.55;1.30;;;;;;;13.75;66.77;99638.00;1701060;83;21040;-59
2021/05/31 07:21:58;;;;;;;4.22;1.30;;;;;;;13.75;64.25;99636.08;1689614;83;21028;-62
2021/05/31 07:24:24;;;;;;;5.75;1.75;;;;;;;13.73;64.56;99640.23;1732483;83;21473;-62
2021/05/31 07:26:51;;;;;;;;;;;;;;;13.72;65.71;99643.52;1721688;83;21068;-60
2021/05/31 07:29:17;;;;;;;3.17;1.55;;;;;;;13.80;64.70;99646.14;1724861;83;20177;-62
2021/05/31 07:31:44;;;;;;;9.13;5.10;;;;;;;13.80;65.19;99648.33;1729453;83;21020;-61
2021/05/31 07:34:10;;;;;;;5.03;1.42;;;;;;;13.90;64.97;99648.19;1715471;83;21064;-61
2021/05/31 07:36:38;;;;;;;5.72;1.60;;;;;;;13.95;64.04;99644.02;1692697;83;21115;-62
2021/05/31 07:39:05;;;;;;;;;;;;;;;14.03;64.88;99647.20;1729227;83;21088;-61
2021/05/31 07:41:32;;;;;;;4.17;1.77;;;;;;;14.05;64.81;99648.52;1731627;83;20163;-62
2021/05/31 07:43:58;;;;;;;5.75;1.40;;;;;;;14.08;65.47;99653.40;1725275;81;21103;-62
2021/05/31 07:46:24;;;;;;;3.60;2.08;;;;;;;14.24;63.18;99655.36;1718135;83;21051;-63
2021/05/31 07:48:52;;;;;;;6.95;1.70;;;;;;;14.25;63.06;99649.56;1713811;83;21094;-60
2021/05/31 07:51:19;;;;;;;2.98;1.55;;;;;;;14.28;63.72;99654.45;1721885;83;21060;-62
2021/05/31 07:53:51;;;;;;;4.03;1.47;;;;;;;14.26;63.07;99657.23;1722270;83;21140;-62
2021/05/31 07:56:21;;;;;;;4.05;1.12;;;;;;;14.29;63.63;99658.00;1720249;83;21036;-60
2021/05/31 07:58:48;;;;;;;2.50;1.17;;;;;;;14.44;64.31;99649.03;1717250;83;21092;-61
2021/05/31 08:01:15;;;;;;;3.83;1.27;;;;;;;14.62;61.55;99650.66;1720729;83;21565;-61
2021/05/31 08:03:43;;;;;;;3.67;1.37;;;;;;;14.74;60.85;99656.45;1724897;83;21076;-62
2021/05/31 08:06:09;;;;;;;;;;;;;;;14.78;61.06;99654.19;1723784;83;21551;-64
2021/05/31 08:08:36;;;;;;;3.35;1.10;;;;;;;14.75;60.50;99658.08;1714236;83;20505;-61
2021/05/31 08:11:03;;;;;;;3.72;1.15;;;;;;;14.56;59.47;99651.86;1719199;83;21008;-61
2021/05/31 08:13:30;;;;;;;5.42;1.10;;;;;;;14.54;59.97;99654.06;1718143;83;21055;-61
2021/05/31 08:15:57;;;;;;;3.22;1.35;;;;;;;14.61;59.93;99655.87;1709967;83;21019;-62
2021/05/31 08:18:24;;;;;;;1.92;1.10;;;;;;;14.72;59.45;99658.14;1720832;81;21630;-60
2021/05/31 08:20:51;;;;;;;2.85;0.90;;;;;;;14.83;58.82;99656.84;1714838;83;21000;-62
2021/05/31 08:23:18;;;;;;;2.47;0.85;;;;;;;14.95;59.62;99657.70;1719436;83;21673;-60
2021/05/31 08:25:44;;;;;;;;;;;;;;;15.05;59.33;99662.21;1720093;83;21084;-61
2021/05/31 08:28:10;;;;;;;2.12;0.70;;;;;;;14.89;57.86;99664.41;1719101;83;20187;-62
2021/05/31 08:30:37;;;;;;;2.17;0.80;;;;;;;14.58;58.95;99658.66;1715277;83;21082;-61
2021/05/31 08:33:05;;;;;;;3.05;0.90;;;;;;;14.47;59.50;99663.22;1710296;82;21655;-61
2021/05/31 08:35:34;;;;;;;1.70;0.70;;;;;;;14.39;60.12;99665.53;1710215;83;21097;-61
2021/05/31 08:38:00;;;;;;;5.17;0.78;;;;;;;14.42;59.35;99655.89;1730112;82;21083;-60
2021/05/31 08:40:27;;;;;;;2.20;0.80;;;;;;;14.50;58.31;99666.73;1731940;82;21558;-60
2021/05/31 08:42:54;;;;;;;3.90;0.80;;;;;;;14.57;59.82;99667.16;1712922;82;21123;-61
2021/05/31 08:45:21;;;;;;;1.45;0.70;;;;;;;14.72;60.21;99672.39;1753345;80;21507;-61
2021/05/31 08:47:51;;;;;;;2.95;0.75;;;;;;;14.89;57.50;99667.15;1736394;81;21628;-61
2021/05/31 08:50:21;;;;;;;1.42;0.50;;;;;;;15.13;57.18;99648.59;1734500;81;21555;-62
2021/05/31 08:52:49;;;;;;;1.87;0.70;;;;;;;15.44;58.12;99673.52;1752337;81;21795;-63
2021/05/31 08:55:18;;;;;;;1.10;0.57;;;;;;;15.59;57.91;99660.86;1735207;81;21040;-61
2021/05/31 08:57:45;;;;;;;2.85;0.57;;;;;;;15.67;57.74;99654.66;1725426;81;21703;-62
2021/05/31 09:00:15;;;;;;;1.77;0.70;;;;;;;15.74;56.50;99655.61;1727905;81;21020;-61
2021/05/31 09:02:43;;;;;;;1.82;0.60;;;;;;;15.73;57.13;99654.02;1712636;81;21069;-60
2021/05/31 09:05:10;;;;;;;1.02;0.47;;;;;;;15.80;56.96;99658.52;1784155;79;21032;-62
2021/05/31 09:07:37;;;;;;;1.15;0.50;;;;;;;15.92;52.44;99656.04;1781128;79;21110;-63
2021/05/31 09:12:50;;;;;;;4.12;0.80;;;;;;;16.40;55.81;99662.58;1799297;79;23421;-62
2021/05/31 09:15:17;;;;;;;2.00;0.60;;;;;;;16.32;54.94;99672.97;1757603;80;21060;-63
2021/05/31 09:17:45;;;;;;;2.40;0.70;;;;;;;16.22;54.42;99662.78;1756958;80;21112;-63
2021/05/31 09:20:11;;;;;;;3.15;0.60;;;;;;;16.17;55.07;99663.70;1757879;80;21056;-61
2021/05/31 09:22:48;;;;;;;1.75;0.62;;;;;;;16.25;54.61;99664.34;1756902;81;21587;-62
2021/05/31 09:25:31;;;;;;;5.08;0.70;;;;;;;16.38;54.38;99665.40;1756517;81;21052;-61
2021/05/31 09:28:01;;;;;;;1.52;0.70;;;;;;;16.42;52.68;99673.27;1759244;80;21105;-61
2021/05/31 09:30:34;;;;;;;1.35;0.70;;;;;;;16.32;53.17;99666.09;1758920;81;21555;-62
2021/05/31 09:33:00;;;;;;;1.45;0.60;;;;;;;16.00;54.97;99664.92;1728021;80;21618;-62
2021/05/31 09:35:27;;;;;;;2.72;0.70;;;;;;;15.73;55.03;99674.59;1759202;80;21009;-61
2021/05/31 09:37:53;;;;;;;1.57;0.60;;;;;;;15.34;56.20;99685.48;1765831;80;21025;-61
2021/05/31 09:40:25;;;;;;;;;;;;;;;15.00;57.40;99679.56;1761517;79;21033;-61
2021/05/31 09:42:58;;;;;;;1.90;0.70;;;;;;;14.81;57.99;99674.13;1758466;80;20193;-61
2021/05/31 09:45:25;;;;;;;0.98;0.50;;;;;;;14.63;59.30;99681.84;1762213;80;21068;-62
2021/05/31 09:47:51;;;;;;;4.45;1.15;;;;;;;14.57;59.15;99680.30;1758567;80;21161;-61
2021/05/31 09:50:25;;;;;;;1.45;0.50;;;;;;;14.56;57.24;99681.41;1760135;80;21512;-62
2021/05/31 09:53:07;;;;;;;3.10;0.50;;;;;;;14.58;59.42;99680.57;1726434;82;21085;-62
2021/05/31 09:55:41;;;;;;;2.05;0.50;;;;;;;14.56;58.58;99688.84;1719036;83;21021;-62
2021/05/31 09:58:17;;;;;;;3.75;0.70;;;;;;;14.55;58.83;99683.91;1704641;83;21112;-60
2021/05/31 10:00:50;;;;;;;1.52;0.60;;;;;;;14.59;59.21;99679.47;1707727;83;21095;-62
2021/05/31 10:03:19;;;;;;;1.62;0.80;;;;;;;14.62;58.93;99683.53;1708991;83;21096;-62
2021/05/31 10:10:43;;;;;;;0.90;0.50;;;;;;;15.25;58.61;99677.71;1705869;83;22027;-62
2021/05/31 10:13:11;;;;;;;1.22;0.40;;;;;;;15.47;54.27;99681.68;1743135;81;21101;-61
2021/05/31 10:15:41;;;;;;;2.42;0.40;;;;;;;15.51;52.66;99678.62;1742847;82;21125;-63
2021/05/31 10:18:16;;;;;;;1.37;0.35;;;;;;;15.44;55.54;99679.00;1749925;81;21129;-63
2021/05/31 10:20:44;;;;;;;0.80;0.30;;;;;;;15.42;55.21;99682.03;1743012;81;20998;-63
2021/05/31 10:23:13;;;;;;;0.80;0.40;;;;;;;15.37;54.74;99678.01;1742696;81;21114;-64
2021/05/31 10:25:46;;;;;;;1.25;0.47;;;;;;;15.33;54.17;99673.45;1745341;81;21095;-62
2021/05/31 10:28:21;;;;;;;0.75;0.40;;;;;;;15.39;56.49;99677.72;1740368;81;21109;-63
2021/05/31 10:30:51;;;;;;;2.05;0.50;;;;;;;15.52;54.90;99678.30;1741541;81;21122;-63
2021/05/31 10:33:21;;;;;;;1.65;0.40;;;;;;;15.62;54.68;99682.78;1760300;81;21049;-64
2021/05/31 10:35:50;;;;;;;3.75;0.45;;;;;;;15.74;54.14;99677.56;1740904;81;20970;-63
2021/05/31 10:38:20;;;;;;;0.85;0.40;;;;;;;15.89;55.44;99673.95;1746767;81;21068;-63
2021/05/31 10:40:50;;;;;;;1.67;0.47;;;;;;;16.22;53.37;99673.77;1739877;82;20990;-63
2021/05/31 10:43:20;;;;;;;2.33;0.50;;;;;;;16.52;52.77;99675.77;1753245;81;21655;-62
2021/05/31 10:45:47;;;;;;;2.30;0.50;;;;;;;16.66;51.39;99677.92;1741614;81;21013;-63
2021/05/31 10:48:21;;;;;;;1.85;0.40;;;;;;;16.60;54.37;99670.94;1742696;81;21050;-63
2021/05/31 10:50:59;;;;;;;1.52;0.40;;;;;;;16.67;50.16;99674.61;1770667;81;21061;-64
2021/05/31 10:53:31;;;;;;;2.52;0.60;;;;;;;16.56;49.92;99669.12;1763716;81;21053;-63
2021/05/31 10:56:09;;;;;;;2.37;0.50;;;;;;;16.17;51.12;99682.92;1743285;81;21002;-63
2021/05/31 10:58:47;;;;;;;2.30;0.47;;;;;;;15.90;52.23;99672.02;1742838;82;21593;-63
2021/05/31 11:01:27;;;;;;;1.30;0.50;;;;;;;15.80;52.49;99668.91;1747004;81;21132;-61
2021/05/31 11:04:01;;;;;;;2.40;0.50;;;;;;;15.59;52.97;99671.05;1741738;82;21058;-61
2021/05/31 11:06:31;;;;;;;0.70;0.40;;;;;;;15.49;54.96;99673.98;1742615;81;21096;-62
2021/05/31 11:09:19;;;;;;;2.05;0.50;;;;;;;15.60;54.06;99674.03;1742248;82;21077;-63
2021/05/31 11:11:53;;;;;;;1.37;0.50;;;;;;;15.66;52.45;99678.31;1746836;81;21636;-62
2021/05/31 11:14:39;;;;;;;1.20;0.50;;;;;;;15.74;52.15;99677.02;1743071;80;21583;-62
2021/05/31 11:17:11;;;;;;;1.40;0.50;;;;;;;15.71;52.10;99681.75;1745988;81;21050;-62
2021/05/31 11:19:49;;;;;;;2.30;0.40;;;;;;;15.64;53.87;99686.84;1741739;81;21029;-62
2021/05/31 11:22:31;;;;;;;3.10;0.53;;;;;;;15.58;53.25;99683.95;1742487;81;21120;-62
2021/05/31 11:25:02;;;;;;;2.10;0.50;;;;;;;15.41;54.48;99681.77;1741913;80;21057;-61
2021/05/31 11:27:36;;;;;;;1.20;0.40;;;;;;;15.22;54.70;99678.33;1743948;81;21085;-62
2021/05/31 11:30:09;;;;;;;2.55;0.40;;;;;;;14.97;55.05;99681.54;1687784;84;21077;-63
2021/05/31 11:32:36;;;;;;;3.10;0.57;;;;;;;14.78;55.69;99680.77;1682596;84;21499;-62
2021/05/31 11:35:06;;;;;;;2.92;0.60;;;;;;;14.64;55.66;99679.92;1704735;84;21061;-60
2021/05/31 11:37:33;;;;;;;3.17;0.40;;;;;;;14.55;56.91;99675.70;1738749;81;21046;-59
2021/05/31 11:40:01;;;;;;;1.15;0.50;;;;;;;14.49;56.65;99678.23;1743670;81;21012;-61
2021/05/31 11:42:27;;;;;;;0.60;0.40;;;;;;;14.43;56.98;99672.05;1748862;80;21623;-62
2021/05/31 11:44:57;;;;;;;0.75;0.42;;;;;;;14.47;57.89;99670.08;1746654;81;20998;-61
2021/05/31 11:47:27;;;;;;;1.30;0.50;;;;;;;14.53;57.87;99674.34;1749178;81;21117;-60
2021/05/31 11:49:54;;;;;;;0.95;0.40;;;;;;;14.56;57.06;99677.88;1684556;84;21006;-61
2021/05/31 11:52:24;;;;;;;;;;;;;;;14.58;56.53;99679.20;1681245;84;21137;-58
2021/05/31 11:54:50;;;;;;;2.37;0.50;;;;;;;14.65;57.08;99674.16;1680691;84;20167;-60
2021/05/31 11:57:21;;;;;;;1.42;0.50;;;;;;;14.69;57.08;99677.11;1741293;81;21496;-59
2021/05/31 11:59:47;;;;;;;1.05;0.60;;;;;;;14.80;56.47;99673.90;1742500;82;21025;-59
2021/05/31 12:02:16;;;;;;;1.07;0.60;;;;;;;14.89;56.03;99682.22;1742783;81;21136;-60
2021/05/31 12:04:44;;;;;;;2.58;0.70;;;;;;;14.98;55.46;99674.95;1751119;81;21049;-61
2021/05/31 12:07:15;;;;;;;1.52;0.60;;;;;;;15.03;54.13;99680.32;1748334;81;21085;-60